Aviation Digital Data Service (ADDS)

Output produced by METARs form (1919 UTC 18 June 2019)
found at http://www.aviationweather.gov/metar/data/
 
RPLC 181900Z 27002KT 9999 FEW020 SCT300 26/23 Q1010 NOSIG RMK A2983
TAF RPLC 181700Z 1818/1924 18006KT 9999 FEW020 BKN300 TX34/1906Z TN25/1822Z 
     TEMPO 1818/1824 24008KT 6000 -TSRA FEW015CB SCT020 BKN100
       
RPVD 181800Z 00000KT 9999 VCTS FEW014CB 27/24 Q1008 RMK A2977 CB/LTG OCNL SSE
TAF RPVD 181700Z 1818/1918 14006KT 9999 FEW015 SCT070 
     TEMPO 1818/1824 00000KT FEW014CB FEW015 BKN070
       
RPMD 181900Z 20003KT 9999 SCT016 SCT090 BKN290 26/25 Q1009 RERA RMK A2980
TAF RPMD 181700Z 1818/1918 16006KT 9999 FEW016 SCT090 BKN290 
     TEMPO 1818/1824 33003KT FEW016 BKN090
       
RPLI 181800Z VRB01KT 9999 FEW018 SCT290 26/25 Q1009 NOSIG RMK A2980
TAF RPLI 181700Z 1818/1918 32008KT 9999 FEW018 SCT090 
     TEMPO 1818/1824 13004KT FEW017CB SCT018
       
RPVM 181900Z 34003KT 9999 FEW018CB SCT100 28/24 Q1009 RMK A2980 CB SW
TAF RPVM 181700Z 1818/1924 05006KT 9999 FEW020 SCT300 
     TEMPO 1818/1824 36005KT FEW020 BKN100 
     TEMPO 1900/1906 09009KT FEW018CB BKN100
       
RPLL 181900Z 10006KT 9999 FEW025 29/24 Q1010 NOSIG RMK A2983
TAF RPLL 181700Z 1818/1924 12006KT 9999 FEW023 SCT100 TX34/1906Z TN28/1821Z 
     TEMPO 1818/1824 10003KT SCT023 
     TEMPO 1909/1915 14010KT 9000 -TSRA FEW022CB SCT023 BKN100
       
RPVP 181800Z 27004KT 9999 FEW020 26/24 Q1009 RMK A2980
TAF RPVP 181700Z 1818/1918 15006KT 9999 FEW019 SCT080 
     TEMPO 1818/1824 27003KT FEW019 SCT250
       
RPLB 181900Z 06003KT 020V090 9999 FEW020 SCT300 27/24 Q1009 NOSIG RMK A2980
TAF RPLB 181700Z 1818/1918 13004KT 9999 FEW020 SCT300 TX33/1906Z TN25/1822Z 
     TEMPO 1818/1824 06007KT FEW018CB FEW020 BKN300
       
TAF RPMR 181700Z 1818/1918 16006KT 9999 FEW018 SCT090 
     TEMPO 1818/1824 34003KT FEW015CB FEW018 BKN080
       
RPMZ 181800Z 00000KT 9999 FEW017 SCT090 BKN300 24/23 Q1009 RMK A2980
TAF RPMZ 181700Z 1818/1918 26005KT 9999 FEW017 SCT090 
     TEMPO 1818/1824 VRB02KT FEW016CB FEW017 BKN090